sensor_id;sensor_type;location;lat;lon;timestamp;temperature;humidity
13389;DHT22;6764;53.250;10.410;2023-05-02T00:00:33;13.90;94.30
13389;DHT22;6764;53.250;10.410;2023-05-02T00:02:59;13.90;94.50
13389;DHT22;6764;53.250;10.410;2023-05-02T00:05:25;13.90;94.50
13389;DHT22;6764;53.250;10.410;2023-05-02T00:07:51;13.90;94.50
13389;DHT22;6764;53.250;10.410;2023-05-02T00:10:17;13.90;94.90
13389;DHT22;6764;53.250;10.410;2023-05-02T00:12:43;14.00;95.10
13389;DHT22;6764;53.250;10.410;2023-05-02T00:15:08;13.90;95.40
13389;DHT22;6764;53.250;10.410;2023-05-02T00:17:34;13.90;95.90
13389;DHT22;6764;53.250;10.410;2023-05-02T00:20:00;13.90;96.10
13389;DHT22;6764;53.250;10.410;2023-05-02T00:22:26;13.90;96.60
13389;DHT22;6764;53.250;10.410;2023-05-02T00:24:56;13.90;96.90
13389;DHT22;6764;53.250;10.410;2023-05-02T00:27:22;13.90;97.20
13389;DHT22;6764;53.250;10.410;2023-05-02T00:29:48;13.80;97.80
13389;DHT22;6764;53.250;10.410;2023-05-02T00:32:13;13.70;98.40
13389;DHT22;6764;53.250;10.410;2023-05-02T00:34:39;13.70;99.00
13389;DHT22;6764;53.250;10.410;2023-05-02T00:37:05;13.70;99.40
13389;DHT22;6764;53.250;10.410;2023-05-02T00:39:33;13.60;99.90
13389;DHT22;6764;53.250;10.410;2023-05-02T00:41:59;13.60;99.90
13389;DHT22;6764;53.250;10.410;2023-05-02T00:44:25;13.70;99.90
13389;DHT22;6764;53.250;10.410;2023-05-02T00:46:51;13.60;99.90
13389;DHT22;6764;53.250;10.410;2023-05-02T00:49:18;13.60;99.90
13389;DHT22;6764;53.250;10.410;2023-05-02T00:51:44;13.60;99.90
13389;DHT22;6764;53.250;10.410;2023-05-02T00:54:11;13.60;99.90
13389;DHT22;6764;53.250;10.410;2023-05-02T00:56:37;13.60;99.90
13389;DHT22;6764;53.250;10.410;2023-05-02T00:59:04;13.60;99.90
13389;DHT22;6764;53.250;10.410;2023-05-02T01:04:36;13.50;99.90
13389;DHT22;6764;53.250;10.410;2023-05-02T01:10:23;13.30;99.90
13389;DHT22;6764;53.250;10.410;2023-05-02T01:12:57;13.20;99.90
13389;DHT22;6764;53.250;10.410;2023-05-02T01:15:25;13.20;99.90
13389;DHT22;6764;53.250;10.410;2023-05-02T01:17:53;13.10;99.90
13389;DHT22;6764;53.250;10.410;2023-05-02T01:20:22;13.00;99.90
13389;DHT22;6764;53.250;10.410;2023-05-02T01:22:50;12.90;99.90
13389;DHT22;6764;53.250;10.410;2023-05-02T01:25:30;12.80;99.90
13389;DHT22;6764;53.250;10.410;2023-05-02T01:28:14;12.70;99.90
13389;DHT22;6764;53.250;10.410;2023-05-02T01:30:43;12.70;99.90
13389;DHT22;6764;53.250;10.410;2023-05-02T01:33:13;12.60;99.90
13389;DHT22;6764;53.250;10.410;2023-05-02T01:35:41;12.50;99.90
13389;DHT22;6764;53.250;10.410;2023-05-02T01:38:09;12.50;99.90
13389;DHT22;6764;53.250;10.410;2023-05-02T01:40:39;12.50;99.90
13389;DHT22;6764;53.250;10.410;2023-05-02T01:43:06;12.40;99.90
13389;DHT22;6764;53.250;10.410;2023-05-02T01:45:32;12.40;99.90
13389;DHT22;6764;53.250;10.410;2023-05-02T01:47:59;12.50;99.90
13389;DHT22;6764;53.250;10.410;2023-05-02T01:50:26;12.40;99.90
13389;DHT22;6764;53.250;10.410;2023-05-02T01:52:52;12.40;99.90
13389;DHT22;6764;53.250;10.410;2023-05-02T01:55:19;12.40;99.90
13389;DHT22;6764;53.250;10.410;2023-05-02T01:57:46;12.40;99.90
13389;DHT22;6764;53.250;10.410;2023-05-02T02:00:12;12.40;99.90
13389;DHT22;6764;53.250;10.410;2023-05-02T02:02:41;12.30;99.90
13389;DHT22;6764;53.250;10.410;2023-05-02T02:05:08;12.40;99.90
13389;DHT22;6764;53.250;10.410;2023-05-02T02:07:35;12.40;99.90
13389;DHT22;6764;53.250;10.410;2023-05-02T02:10:01;12.30;99.90
13389;DHT22;6764;53.250;10.410;2023-05-02T02:12:41;12.30;99.90
13389;DHT22;6764;53.250;10.410;2023-05-02T02:15:17;12.20;99.90
13389;DHT22;6764;53.250;10.410;2023-05-02T02:17:54;12.20;99.90
13389;DHT22;6764;53.250;10.410;2023-05-02T02:20:21;12.20;99.90
13389;DHT22;6764;53.250;10.410;2023-05-02T02:22:47;12.20;99.90
13389;DHT22;6764;53.250;10.410;2023-05-02T02:25:17;12.20;99.90
13389;DHT22;6764;53.250;10.410;2023-05-02T02:27:43;12.20;99.90
13389;DHT22;6764;53.250;10.410;2023-05-02T02:30:09;12.30;99.90
13389;DHT22;6764;53.250;10.410;2023-05-02T02:32:35;12.30;99.90
13389;DHT22;6764;53.250;10.410;2023-05-02T02:35:01;12.40;99.90
13389;DHT22;6764;53.250;10.410;2023-05-02T02:37:40;12.50;99.90
13389;DHT22;6764;53.250;10.410;2023-05-02T02:40:27;12.50;99.90
13389;DHT22;6764;53.250;10.410;2023-05-02T02:48:37;12.60;99.90
13389;DHT22;6764;53.250;10.410;2023-05-02T02:51:29;12.70;99.90
13389;DHT22;6764;53.250;10.410;2023-05-02T02:54:07;12.70;99.90
13389;DHT22;6764;53.250;10.410;2023-05-02T02:56:45;12.70;99.90
13389;DHT22;6764;53.250;10.410;2023-05-02T02:59:17;12.70;99.90
13389;DHT22;6764;53.250;10.410;2023-05-02T03:02:04;12.70;99.90
13389;DHT22;6764;53.250;10.410;2023-05-02T03:04:31;12.90;99.90
13389;DHT22;6764;53.250;10.410;2023-05-02T03:06:59;12.90;99.90
13389;DHT22;6764;53.250;10.410;2023-05-02T03:09:25;12.90;99.90
13389;DHT22;6764;53.250;10.410;2023-05-02T03:11:55;12.90;99.90
13389;DHT22;6764;53.250;10.410;2023-05-02T03:14:21;12.90;99.90
13389;DHT22;6764;53.250;10.410;2023-05-02T03:16:47;12.90;99.90
13389;DHT22;6764;53.250;10.410;2023-05-02T03:19:13;12.90;99.90
13389;DHT22;6764;53.250;10.410;2023-05-02T03:21:38;12.90;99.90
13389;DHT22;6764;53.250;10.410;2023-05-02T03:24:04;13.00;99.90
13389;DHT22;6764;53.250;10.410;2023-05-02T03:26:30;13.00;99.90
13389;DHT22;6764;53.250;10.410;2023-05-02T03:28:56;13.00;99.90
13389;DHT22;6764;53.250;10.410;2023-05-02T03:31:22;13.00;99.90
13389;DHT22;6764;53.250;10.410;2023-05-02T03:33:48;13.00;99.90
13389;DHT22;6764;53.250;10.410;2023-05-02T03:36:14;13.00;99.90
13389;DHT22;6764;53.250;10.410;2023-05-02T03:38:40;12.90;99.90
13389;DHT22;6764;53.250;10.410;2023-05-02T03:41:06;12.90;99.90
13389;DHT22;6764;53.250;10.410;2023-05-02T03:43:32;13.00;99.90
13389;DHT22;6764;53.250;10.410;2023-05-02T03:46:06;12.90;99.90
13389;DHT22;6764;53.250;10.410;2023-05-02T03:48:33;12.90;99.90
13389;DHT22;6764;53.250;10.410;2023-05-02T03:50:59;12.80;99.90
13389;DHT22;6764;53.250;10.410;2023-05-02T03:53:25;12.80;99.90
13389;DHT22;6764;53.250;10.410;2023-05-02T03:55:50;12.70;99.90
13389;DHT22;6764;53.250;10.410;2023-05-02T03:58:16;12.60;99.90
13389;DHT22;6764;53.250;10.410;2023-05-02T04:00:41;12.50;99.90
13389;DHT22;6764;53.250;10.410;2023-05-02T04:03:07;12.30;99.90
13389;DHT22;6764;53.250;10.410;2023-05-02T04:05:33;12.10;99.90
13389;DHT22;6764;53.250;10.410;2023-05-02T04:08:00;11.90;99.90
13389;DHT22;6764;53.250;10.410;2023-05-02T04:10:26;11.70;99.90
13389;DHT22;6764;53.250;10.410;2023-05-02T04:12:51;11.50;99.90
13389;DHT22;6764;53.250;10.410;2023-05-02T04:15:17;11.30;99.90
13389;DHT22;6764;53.250;10.410;2023-05-02T04:17:42;11.10;99.90
13389;DHT22;6764;53.250;10.410;2023-05-02T04:20:09;11.00;99.90
13389;DHT22;6764;53.250;10.410;2023-05-02T04:22:35;10.80;99.90
13389;DHT22;6764;53.250;10.410;2023-05-02T04:25:00;10.90;99.90
13389;DHT22;6764;53.250;10.410;2023-05-02T04:27:26;10.80;99.90
13389;DHT22;6764;53.250;10.410;2023-05-02T04:29:52;10.70;99.90
13389;DHT22;6764;53.250;10.410;2023-05-02T04:32:19;10.60;99.90
13389;DHT22;6764;53.250;10.410;2023-05-02T04:34:45;10.60;99.90
13389;DHT22;6764;53.250;10.410;2023-05-02T04:37:10;10.60;99.90
13389;DHT22;6764;53.250;10.410;2023-05-02T04:39:36;10.60;99.90
13389;DHT22;6764;53.250;10.410;2023-05-02T04:42:02;10.60;99.90
13389;DHT22;6764;53.250;10.410;2023-05-02T04:44:28;10.60;99.90
13389;DHT22;6764;53.250;10.410;2023-05-02T04:46:53;10.70;99.90
13389;DHT22;6764;53.250;10.410;2023-05-02T04:49:19;10.60;99.90
13389;DHT22;6764;53.250;10.410;2023-05-02T04:51:44;10.60;99.90
13389;DHT22;6764;53.250;10.410;2023-05-02T04:54:11;10.50;99.90
13389;DHT22;6764;53.250;10.410;2023-05-02T04:56:37;10.40;99.90
13389;DHT22;6764;53.250;10.410;2023-05-02T04:59:02;10.30;99.90
13389;DHT22;6764;53.250;10.410;2023-05-02T05:01:28;10.20;99.90
13389;DHT22;6764;53.250;10.410;2023-05-02T05:03:54;10.20;99.90
13389;DHT22;6764;53.250;10.410;2023-05-02T05:06:20;10.10;99.90
13389;DHT22;6764;53.250;10.410;2023-05-02T05:08:45;10.20;99.90
13389;DHT22;6764;53.250;10.410;2023-05-02T05:11:11;10.10;99.90
13389;DHT22;6764;53.250;10.410;2023-05-02T05:13:37;10.10;99.90
13389;DHT22;6764;53.250;10.410;2023-05-02T05:16:03;10.10;99.90
13389;DHT22;6764;53.250;10.410;2023-05-02T05:18:29;10.10;99.90
13389;DHT22;6764;53.250;10.410;2023-05-02T05:20:54;10.00;99.90
13389;DHT22;6764;53.250;10.410;2023-05-02T05:23:20;9.90;99.90
13389;DHT22;6764;53.250;10.410;2023-05-02T05:25:46;10.00;99.90
13389;DHT22;6764;53.250;10.410;2023-05-02T05:28:11;10.10;99.90
13389;DHT22;6764;53.250;10.410;2023-05-02T05:30:37;10.00;99.90
13389;DHT22;6764;53.250;10.410;2023-05-02T05:33:03;10.10;99.90
13389;DHT22;6764;53.250;10.410;2023-05-02T05:35:28;10.20;99.90
13389;DHT22;6764;53.250;10.410;2023-05-02T05:37:54;10.30;99.90
13389;DHT22;6764;53.250;10.410;2023-05-02T05:40:20;10.40;99.90
13389;DHT22;6764;53.250;10.410;2023-05-02T05:42:45;10.50;99.90
13389;DHT22;6764;53.250;10.410;2023-05-02T05:45:12;10.60;99.90
13389;DHT22;6764;53.250;10.410;2023-05-02T05:47:38;10.70;99.90
13389;DHT22;6764;53.250;10.410;2023-05-02T05:50:04;10.80;99.90
13389;DHT22;6764;53.250;10.410;2023-05-02T05:52:29;10.80;99.90
13389;DHT22;6764;53.250;10.410;2023-05-02T05:54:55;10.80;99.90
13389;DHT22;6764;53.250;10.410;2023-05-02T05:57:21;11.10;99.90
13389;DHT22;6764;53.250;10.410;2023-05-02T05:59:47;11.20;99.90
13389;DHT22;6764;53.250;10.410;2023-05-02T06:02:13;11.10;99.90
13389;DHT22;6764;53.250;10.410;2023-05-02T06:04:39;11.20;99.90
13389;DHT22;6764;53.250;10.410;2023-05-02T06:07:05;11.10;99.90
13389;DHT22;6764;53.250;10.410;2023-05-02T06:09:31;10.90;99.90
13389;DHT22;6764;53.250;10.410;2023-05-02T06:11:56;10.80;99.90
13389;DHT22;6764;53.250;10.410;2023-05-02T06:14:22;10.80;99.90
13389;DHT22;6764;53.250;10.410;2023-05-02T06:16:48;10.70;99.90
13389;DHT22;6764;53.250;10.410;2023-05-02T06:19:14;10.70;99.90
13389;DHT22;6764;53.250;10.410;2023-05-02T06:21:39;10.60;99.90
13389;DHT22;6764;53.250;10.410;2023-05-02T06:24:05;10.60;99.90
13389;DHT22;6764;53.250;10.410;2023-05-02T06:26:31;10.70;99.90
13389;DHT22;6764;53.250;10.410;2023-05-02T06:28:57;10.70;99.90
13389;DHT22;6764;53.250;10.410;2023-05-02T06:31:22;10.60;99.90
13389;DHT22;6764;53.250;10.410;2023-05-02T06:33:48;10.60;99.90
13389;DHT22;6764;53.250;10.410;2023-05-02T06:36:14;10.60;99.90
13389;DHT22;6764;53.250;10.410;2023-05-02T06:38:40;10.50;99.90
13389;DHT22;6764;53.250;10.410;2023-05-02T06:41:12;10.50;99.90
13389;DHT22;6764;53.250;10.410;2023-05-02T06:43:39;10.50;99.90
13389;DHT22;6764;53.250;10.410;2023-05-02T06:46:05;10.60;99.90
13389;DHT22;6764;53.250;10.410;2023-05-02T06:48:30;10.60;99.90
13389;DHT22;6764;53.250;10.410;2023-05-02T06:50:56;10.60;99.90
13389;DHT22;6764;53.250;10.410;2023-05-02T06:53:22;10.40;99.90
13389;DHT22;6764;53.250;10.410;2023-05-02T06:55:47;10.40;99.90
13389;DHT22;6764;53.250;10.410;2023-05-02T06:58:13;10.40;99.90
13389;DHT22;6764;53.250;10.410;2023-05-02T07:00:39;10.30;99.90
13389;DHT22;6764;53.250;10.410;2023-05-02T07:03:05;10.30;99.90
13389;DHT22;6764;53.250;10.410;2023-05-02T07:05:30;10.30;99.90
13389;DHT22;6764;53.250;10.410;2023-05-02T07:07:56;10.20;99.90
13389;DHT22;6764;53.250;10.410;2023-05-02T07:10:22;10.00;99.90
13389;DHT22;6764;53.250;10.410;2023-05-02T07:12:47;10.00;99.90
13389;DHT22;6764;53.250;10.410;2023-05-02T07:15:13;10.00;99.90
13389;DHT22;6764;53.250;10.410;2023-05-02T07:17:40;10.10;99.90
13389;DHT22;6764;53.250;10.410;2023-05-02T07:20:07;10.10;99.90
13389;DHT22;6764;53.250;10.410;2023-05-02T07:22:33;10.10;99.90
13389;DHT22;6764;53.250;10.410;2023-05-02T07:25:00;10.00;99.90
13389;DHT22;6764;53.250;10.410;2023-05-02T07:27:27;10.10;99.90
13389;DHT22;6764;53.250;10.410;2023-05-02T07:29:52;10.20;99.90
13389;DHT22;6764;53.250;10.410;2023-05-02T07:32:19;10.30;99.90
13389;DHT22;6764;53.250;10.410;2023-05-02T07:34:46;10.30;99.90
13389;DHT22;6764;53.250;10.410;2023-05-02T07:37:12;10.40;99.90
13389;DHT22;6764;53.250;10.410;2023-05-02T07:39:37;10.30;99.90
13389;DHT22;6764;53.250;10.410;2023-05-02T07:42:03;10.30;99.90
13389;DHT22;6764;53.250;10.410;2023-05-02T07:44:29;10.40;99.90
13389;DHT22;6764;53.250;10.410;2023-05-02T07:46:54;10.40;99.90
13389;DHT22;6764;53.250;10.410;2023-05-02T07:49:20;10.50;99.90
13389;DHT22;6764;53.250;10.410;2023-05-02T07:51:45;10.50;99.90
13389;DHT22;6764;53.250;10.410;2023-05-02T07:54:18;10.50;99.90
13389;DHT22;6764;53.250;10.410;2023-05-02T07:56:44;10.60;99.90
13389;DHT22;6764;53.250;10.410;2023-05-02T07:59:10;10.50;99.90
13389;DHT22;6764;53.250;10.410;2023-05-02T08:01:37;10.40;99.90
13389;DHT22;6764;53.250;10.410;2023-05-02T08:04:02;10.50;99.90
13389;DHT22;6764;53.250;10.410;2023-05-02T08:06:29;10.50;99.90
13389;DHT22;6764;53.250;10.410;2023-05-02T08:08:55;10.50;99.90
13389;DHT22;6764;53.250;10.410;2023-05-02T08:11:21;10.60;99.90
13389;DHT22;6764;53.250;10.410;2023-05-02T08:13:52;10.50;99.90
13389;DHT22;6764;53.250;10.410;2023-05-02T08:16:18;10.40;99.90
13389;DHT22;6764;53.250;10.410;2023-05-02T08:18:44;10.50;99.90
13389;DHT22;6764;53.250;10.410;2023-05-02T08:21:10;10.40;99.90
13389;DHT22;6764;53.250;10.410;2023-05-02T08:23:35;10.50;99.90
13389;DHT22;6764;53.250;10.410;2023-05-02T08:26:02;10.40;99.90
13389;DHT22;6764;53.250;10.410;2023-05-02T08:28:28;10.50;99.90
13389;DHT22;6764;53.250;10.410;2023-05-02T08:30:54;10.70;99.90
13389;DHT22;6764;53.250;10.410;2023-05-02T08:33:20;10.90;99.90
13389;DHT22;6764;53.250;10.410;2023-05-02T08:35:46;11.10;99.90
13389;DHT22;6764;53.250;10.410;2023-05-02T08:38:12;11.20;99.30
13389;DHT22;6764;53.250;10.410;2023-05-02T08:40:38;11.20;98.40
13389;DHT22;6764;53.250;10.410;2023-05-02T08:43:04;11.30;98.40
13389;DHT22;6764;53.250;10.410;2023-05-02T08:45:35;11.60;97.80
13389;DHT22;6764;53.250;10.410;2023-05-02T08:48:11;11.60;97.40
13389;DHT22;6764;53.250;10.410;2023-05-02T08:50:38;11.70;96.90
13389;DHT22;6764;53.250;10.410;2023-05-02T08:53:04;11.70;96.90
13389;DHT22;6764;53.250;10.410;2023-05-02T08:55:33;11.70;96.80
13389;DHT22;6764;53.250;10.410;2023-05-02T08:57:58;11.90;96.60
13389;DHT22;6764;53.250;10.410;2023-05-02T09:00:26;12.00;96.50
13389;DHT22;6764;53.250;10.410;2023-05-02T09:08:29;12.10;96.70
13389;DHT22;6764;53.250;10.410;2023-05-02T09:10:55;12.20;96.20
13389;DHT22;6764;53.250;10.410;2023-05-02T09:13:27;12.30;96.10
13389;DHT22;6764;53.250;10.410;2023-05-02T09:15:57;12.30;95.10
13389;DHT22;6764;53.250;10.410;2023-05-02T09:18:27;12.30;94.80
13389;DHT22;6764;53.250;10.410;2023-05-02T09:20:52;12.30;94.40
13389;DHT22;6764;53.250;10.410;2023-05-02T09:23:18;12.80;94.10
13389;DHT22;6764;53.250;10.410;2023-05-02T09:25:45;13.10;92.80
13389;DHT22;6764;53.250;10.410;2023-05-02T09:28:10;13.40;91.90
13389;DHT22;6764;53.250;10.410;2023-05-02T09:30:36;13.60;91.10
13389;DHT22;6764;53.250;10.410;2023-05-02T09:33:01;13.50;90.80
13389;DHT22;6764;53.250;10.410;2023-05-02T09:35:27;13.80;90.60
13389;DHT22;6764;53.250;10.410;2023-05-02T09:37:56;13.80;90.50
13389;DHT22;6764;53.250;10.410;2023-05-02T09:40:22;13.60;90.60
13389;DHT22;6764;53.250;10.410;2023-05-02T09:42:49;13.90;90.30
13389;DHT22;6764;53.250;10.410;2023-05-02T09:45:25;14.40;90.20
13389;DHT22;6764;53.250;10.410;2023-05-02T09:47:51;15.40;88.00
13389;DHT22;6764;53.250;10.410;2023-05-02T09:50:32;15.90;84.30
13389;DHT22;6764;53.250;10.410;2023-05-02T09:53:03;16.40;82.70
13389;DHT22;6764;53.250;10.410;2023-05-02T09:55:28;16.40;82.60
13389;DHT22;6764;53.250;10.410;2023-05-02T09:57:54;16.10;81.90
13389;DHT22;6764;53.250;10.410;2023-05-02T10:00:20;15.30;83.20
13389;DHT22;6764;53.250;10.410;2023-05-02T10:02:48;15.00;84.30
13389;DHT22;6764;53.250;10.410;2023-05-02T10:05:16;15.30;84.70
13389;DHT22;6764;53.250;10.410;2023-05-02T10:07:43;15.30;84.10
13389;DHT22;6764;53.250;10.410;2023-05-02T10:10:16;15.20;84.50
13389;DHT22;6764;53.250;10.410;2023-05-02T10:12:43;14.90;83.10
13389;DHT22;6764;53.250;10.410;2023-05-02T10:15:11;14.80;82.60
13389;DHT22;6764;53.250;10.410;2023-05-02T10:17:46;16.00;81.00
13389;DHT22;6764;53.250;10.410;2023-05-02T10:20:15;17.10;78.10
13389;DHT22;6764;53.250;10.410;2023-05-02T10:22:44;18.00;77.10
13389;DHT22;6764;53.250;10.410;2023-05-02T10:25:11;19.00;73.10
13389;DHT22;6764;53.250;10.410;2023-05-02T10:27:37;19.00;71.60
13389;DHT22;6764;53.250;10.410;2023-05-02T10:30:04;18.40;71.40
13389;DHT22;6764;53.250;10.410;2023-05-02T10:32:32;17.70;72.20
13389;DHT22;6764;53.250;10.410;2023-05-02T10:35:05;18.30;71.90
13389;DHT22;6764;53.250;10.410;2023-05-02T10:37:32;19.40;69.40
13389;DHT22;6764;53.250;10.410;2023-05-02T10:39:59;19.90;67.70
13389;DHT22;6764;53.250;10.410;2023-05-02T10:42:25;19.40;67.10
13389;DHT22;6764;53.250;10.410;2023-05-02T10:44:51;18.60;68.10
13389;DHT22;6764;53.250;10.410;2023-05-02T10:47:24;19.20;67.80
13389;DHT22;6764;53.250;10.410;2023-05-02T10:49:54;19.40;67.20
13389;DHT22;6764;53.250;10.410;2023-05-02T10:52:29;19.40;66.80
13389;DHT22;6764;53.250;10.410;2023-05-02T10:55:18;19.30;66.60
13389;DHT22;6764;53.250;10.410;2023-05-02T11:02:51;19.90;66.90
13389;DHT22;6764;53.250;10.410;2023-05-02T11:05:17;19.60;66.10
13389;DHT22;6764;53.250;10.410;2023-05-02T11:07:43;19.30;66.50
13389;DHT22;6764;53.250;10.410;2023-05-02T11:12:48;19.50;66.00
13389;DHT22;6764;53.250;10.410;2023-05-02T11:20:24;19.30;67.60
13389;DHT22;6764;53.250;10.410;2023-05-02T11:22:50;19.10;67.90
13389;DHT22;6764;53.250;10.410;2023-05-02T11:25:38;18.30;70.10
13389;DHT22;6764;53.250;10.410;2023-05-02T11:28:06;18.10;70.40
13389;DHT22;6764;53.250;10.410;2023-05-02T11:30:43;17.90;70.00
13389;DHT22;6764;53.250;10.410;2023-05-02T11:35:35;17.30;72.20
13389;DHT22;6764;53.250;10.410;2023-05-02T11:38:07;17.00;74.40
13389;DHT22;6764;53.250;10.410;2023-05-02T11:40:33;16.70;72.90
13389;DHT22;6764;53.250;10.410;2023-05-02T11:42:59;16.70;71.80
13389;DHT22;6764;53.250;10.410;2023-05-02T11:45:35;16.30;71.90
13389;DHT22;6764;53.250;10.410;2023-05-02T11:48:05;16.30;72.70
13389;DHT22;6764;53.250;10.410;2023-05-02T11:50:32;16.40;72.10
13389;DHT22;6764;53.250;10.410;2023-05-02T11:52:58;16.70;71.70
13389;DHT22;6764;53.250;10.410;2023-05-02T11:55:24;17.00;71.10
13389;DHT22;6764;53.250;10.410;2023-05-02T11:57:50;17.10;70.80
13389;DHT22;6764;53.250;10.410;2023-05-02T12:00:16;17.10;71.10
13389;DHT22;6764;53.250;10.410;2023-05-02T12:02:44;16.90;73.20
13389;DHT22;6764;53.250;10.410;2023-05-02T12:05:12;16.90;73.90
13389;DHT22;6764;53.250;10.410;2023-05-02T12:07:45;16.70;73.00
13389;DHT22;6764;53.250;10.410;2023-05-02T12:10:14;16.50;72.80
13389;DHT22;6764;53.250;10.410;2023-05-02T12:12:42;16.40;72.50
13389;DHT22;6764;53.250;10.410;2023-05-02T12:15:09;16.30;72.60
13389;DHT22;6764;53.250;10.410;2023-05-02T12:17:40;16.30;72.10
13389;DHT22;6764;53.250;10.410;2023-05-02T12:20:08;16.20;73.30
13389;DHT22;6764;53.250;10.410;2023-05-02T12:22:34;16.10;73.00
13389;DHT22;6764;53.250;10.410;2023-05-02T12:25:04;16.00;73.90
13389;DHT22;6764;53.250;10.410;2023-05-02T12:27:30;15.90;74.30
13389;DHT22;6764;53.250;10.410;2023-05-02T12:29:59;15.80;75.40
13389;DHT22;6764;53.250;10.410;2023-05-02T12:32:33;15.70;77.10
13389;DHT22;6764;53.250;10.410;2023-05-02T12:35:00;15.50;78.30
13389;DHT22;6764;53.250;10.410;2023-05-02T12:37:27;15.20;78.90
13389;DHT22;6764;53.250;10.410;2023-05-02T12:39:54;15.20;78.30
13389;DHT22;6764;53.250;10.410;2023-05-02T12:42:24;15.10;78.50
13389;DHT22;6764;53.250;10.410;2023-05-02T12:44:51;15.20;78.80
13389;DHT22;6764;53.250;10.410;2023-05-02T12:47:18;15.20;78.70
13389;DHT22;6764;53.250;10.410;2023-05-02T12:50:04;15.30;79.00
13389;DHT22;6764;53.250;10.410;2023-05-02T12:52:46;15.00;79.90
13389;DHT22;6764;53.250;10.410;2023-05-02T12:55:23;15.00;81.80
13389;DHT22;6764;53.250;10.410;2023-05-02T12:57:49;14.70;84.30
13389;DHT22;6764;53.250;10.410;2023-05-02T13:00:18;14.60;85.30
13389;DHT22;6764;53.250;10.410;2023-05-02T13:02:44;14.40;86.10
13389;DHT22;6764;53.250;10.410;2023-05-02T13:05:16;14.30;86.80
13389;DHT22;6764;53.250;10.410;2023-05-02T13:07:42;14.20;86.50
13389;DHT22;6764;53.250;10.410;2023-05-02T13:10:08;14.20;86.90
13389;DHT22;6764;53.250;10.410;2023-05-02T13:12:34;14.00;86.40
13389;DHT22;6764;53.250;10.410;2023-05-02T13:15:06;14.00;87.20
13389;DHT22;6764;53.250;10.410;2023-05-02T13:17:35;14.10;86.40
13389;DHT22;6764;53.250;10.410;2023-05-02T13:20:00;14.10;85.50
13389;DHT22;6764;53.250;10.410;2023-05-02T13:22:27;14.20;85.70
13389;DHT22;6764;53.250;10.410;2023-05-02T13:24:52;14.30;84.00
13389;DHT22;6764;53.250;10.410;2023-05-02T13:27:18;14.40;83.80
13389;DHT22;6764;53.250;10.410;2023-05-02T13:29:44;14.30;81.70
13389;DHT22;6764;53.250;10.410;2023-05-02T13:32:10;14.30;81.40
13389;DHT22;6764;53.250;10.410;2023-05-02T13:34:36;14.30;80.90
13389;DHT22;6764;53.250;10.410;2023-05-02T13:37:02;14.40;80.20
13389;DHT22;6764;53.250;10.410;2023-05-02T13:39:28;14.60;80.10
13389;DHT22;6764;53.250;10.410;2023-05-02T13:41:53;14.70;79.60
13389;DHT22;6764;53.250;10.410;2023-05-02T13:44:19;14.60;79.40
13389;DHT22;6764;53.250;10.410;2023-05-02T13:46:45;14.60;80.20
13389;DHT22;6764;53.250;10.410;2023-05-02T13:49:12;14.60;80.70
13389;DHT22;6764;53.250;10.410;2023-05-02T13:51:37;14.40;80.20
13389;DHT22;6764;53.250;10.410;2023-05-02T13:54:03;14.30;80.20
13389;DHT22;6764;53.250;10.410;2023-05-02T13:56:29;14.30;80.20
13389;DHT22;6764;53.250;10.410;2023-05-02T13:58:55;14.30;80.10
13389;DHT22;6764;53.250;10.410;2023-05-02T14:01:20;14.30;79.50
13389;DHT22;6764;53.250;10.410;2023-05-02T14:03:46;14.30;80.10
13389;DHT22;6764;53.250;10.410;2023-05-02T14:06:12;14.50;80.10
13389;DHT22;6764;53.250;10.410;2023-05-02T14:08:37;14.60;79.80
13389;DHT22;6764;53.250;10.410;2023-05-02T14:11:03;14.70;78.90
13389;DHT22;6764;53.250;10.410;2023-05-02T14:13:31;14.60;78.20
13389;DHT22;6764;53.250;10.410;2023-05-02T14:15:57;14.40;78.70
13389;DHT22;6764;53.250;10.410;2023-05-02T14:18:23;14.40;79.10
13389;DHT22;6764;53.250;10.410;2023-05-02T14:20:48;14.30;79.50
13389;DHT22;6764;53.250;10.410;2023-05-02T14:23:14;14.30;79.60
13389;DHT22;6764;53.250;10.410;2023-05-02T14:25:40;14.30;79.20
13389;DHT22;6764;53.250;10.410;2023-05-02T14:28:06;14.20;79.10
13389;DHT22;6764;53.250;10.410;2023-05-02T14:30:31;14.20;79.40
13389;DHT22;6764;53.250;10.410;2023-05-02T14:32:57;14.20;79.80
13389;DHT22;6764;53.250;10.410;2023-05-02T14:35:22;14.10;79.80
13389;DHT22;6764;53.250;10.410;2023-05-02T14:37:48;13.90;81.20
13389;DHT22;6764;53.250;10.410;2023-05-02T14:40:14;13.80;82.10
13389;DHT22;6764;53.250;10.410;2023-05-02T14:42:40;13.80;83.10
13389;DHT22;6764;53.250;10.410;2023-05-02T14:45:07;13.60;82.90
13389;DHT22;6764;53.250;10.410;2023-05-02T14:47:32;13.60;83.40
13389;DHT22;6764;53.250;10.410;2023-05-02T14:49:59;13.50;84.50
13389;DHT22;6764;53.250;10.410;2023-05-02T14:52:25;13.50;85.20
13389;DHT22;6764;53.250;10.410;2023-05-02T14:54:51;13.50;85.60
13389;DHT22;6764;53.250;10.410;2023-05-02T14:57:17;13.60;85.90
13389;DHT22;6764;53.250;10.410;2023-05-02T14:59:43;13.60;86.30
13389;DHT22;6764;53.250;10.410;2023-05-02T15:02:08;13.60;86.90
13389;DHT22;6764;53.250;10.410;2023-05-02T15:04:34;13.60;87.70
13389;DHT22;6764;53.250;10.410;2023-05-02T15:07:00;13.60;88.00
13389;DHT22;6764;53.250;10.410;2023-05-02T15:09:25;13.50;87.90
13389;DHT22;6764;53.250;10.410;2023-05-02T15:11:52;13.60;88.10
13389;DHT22;6764;53.250;10.410;2023-05-02T15:14:17;13.60;88.50
13389;DHT22;6764;53.250;10.410;2023-05-02T15:16:43;13.60;87.50
13389;DHT22;6764;53.250;10.410;2023-05-02T15:19:09;13.70;87.10
13389;DHT22;6764;53.250;10.410;2023-05-02T15:21:35;13.70;86.40
13389;DHT22;6764;53.250;10.410;2023-05-02T15:24:01;13.60;84.40
13389;DHT22;6764;53.250;10.410;2023-05-02T15:26:28;13.60;83.40
13389;DHT22;6764;53.250;10.410;2023-05-02T15:28:54;13.70;82.40
13389;DHT22;6764;53.250;10.410;2023-05-02T15:31:20;13.60;82.30
13389;DHT22;6764;53.250;10.410;2023-05-02T15:33:46;13.50;82.90
13389;DHT22;6764;53.250;10.410;2023-05-02T15:36:12;13.30;84.60
13389;DHT22;6764;53.250;10.410;2023-05-02T15:38:38;13.00;86.10
13389;DHT22;6764;53.250;10.410;2023-05-02T15:41:07;12.90;87.10
13389;DHT22;6764;53.250;10.410;2023-05-02T15:43:33;12.90;88.10
13389;DHT22;6764;53.250;10.410;2023-05-02T15:45:59;12.90;88.90
13389;DHT22;6764;53.250;10.410;2023-05-02T15:48:29;12.70;88.70
13389;DHT22;6764;53.250;10.410;2023-05-02T15:50:55;12.70;89.10
13389;DHT22;6764;53.250;10.410;2023-05-02T15:53:21;12.70;88.70
13389;DHT22;6764;53.250;10.410;2023-05-02T15:55:48;12.70;87.70
13389;DHT22;6764;53.250;10.410;2023-05-02T15:58:15;12.70;87.60
13389;DHT22;6764;53.250;10.410;2023-05-02T16:00:41;12.60;87.30
13389;DHT22;6764;53.250;10.410;2023-05-02T16:03:07;12.70;87.90